createdAt,value
2023-10-02T00:01:42.721Z,15.09
2023-10-02T00:03:48.938Z,15.15
2023-10-02T00:05:53.020Z,15.07
2023-10-02T00:07:54.491Z,15.07
2023-10-02T00:09:55.888Z,15.02
2023-10-02T00:11:57.918Z,15.06
2023-10-02T00:14:26.972Z,15.00
2023-10-02T00:16:32.396Z,14.98
2023-10-02T00:18:35.205Z,15.01
2023-10-02T00:20:36.617Z,14.96
2023-10-02T00:22:38.065Z,14.96
2023-10-02T00:24:41.415Z,14.97
2023-10-02T00:26:43.665Z,14.94
2023-10-02T00:28:47.121Z,14.90
2023-10-02T00:30:50.074Z,14.85
2023-10-02T00:32:52.614Z,14.83
2023-10-02T00:34:54.752Z,14.88
2023-10-02T00:36:56.257Z,14.87
2023-10-02T00:39:19.570Z,14.85
2023-10-02T00:41:21.011Z,14.88
2023-10-02T00:43:42.971Z,14.82
2023-10-02T00:45:44.588Z,14.78
2023-10-02T00:47:47.132Z,14.79
2023-10-02T00:50:07.964Z,14.80
2023-10-02T00:52:10.245Z,14.86
2023-10-02T00:54:28.579Z,14.83
2023-10-02T00:56:30.406Z,14.92
2023-10-02T00:58:32.788Z,14.85
2023-10-02T01:00:43.361Z,14.81
2023-10-02T01:02:52.951Z,14.81
2023-10-02T01:04:57.902Z,14.84
2023-10-02T01:07:05.252Z,14.82
2023-10-02T01:09:06.706Z,14.82
2023-10-02T01:11:08.220Z,14.78
2023-10-02T01:13:10.075Z,14.74
2023-10-02T01:15:16.131Z,14.79
2023-10-02T01:17:18.696Z,14.83
2023-10-02T01:19:25.553Z,14.79
2023-10-02T01:21:29.419Z,14.75
2023-10-02T01:23:34.618Z,14.79
2023-10-02T01:25:39.377Z,14.79
2023-10-02T01:27:42.322Z,14.73
2023-10-02T01:29:43.798Z,14.79
2023-10-02T01:31:53.062Z,14.73
2023-10-02T01:33:55.403Z,14.73
2023-10-02T01:36:00.818Z,14.75
2023-10-02T01:38:02.888Z,14.69
2023-10-02T01:40:23.347Z,14.72
2023-10-02T01:42:24.791Z,14.67
2023-10-02T01:44:26.321Z,14.68
2023-10-02T01:46:29.439Z,14.64
2023-10-02T01:48:45.399Z,14.65
2023-10-02T01:50:46.997Z,14.61
2023-10-02T01:52:52.338Z,14.63
2023-10-02T01:54:57.631Z,14.63
2023-10-02T01:57:05.839Z,14.61
2023-10-02T01:59:15.886Z,14.60
2023-10-02T02:01:18.254Z,14.56
2023-10-02T02:03:19.981Z,14.60
2023-10-02T02:05:21.586Z,14.56
2023-10-02T02:07:23.031Z,14.52
2023-10-02T02:09:32.895Z,14.52
2023-10-02T02:11:36.054Z,14.52
2023-10-02T02:13:45.238Z,14.51
2023-10-02T02:16:08.853Z,14.52
2023-10-02T02:18:10.578Z,14.53
2023-10-02T02:20:12.874Z,14.48
2023-10-02T02:22:32.788Z,14.46
2023-10-02T02:24:35.914Z,14.43
2023-10-02T02:26:40.508Z,14.42
2023-10-02T02:28:45.078Z,14.42
2023-10-02T02:30:48.602Z,14.42
2023-10-02T02:32:56.351Z,14.45
2023-10-02T02:35:02.323Z,14.50
2023-10-02T02:37:07.695Z,14.48
2023-10-02T02:39:18.022Z,14.38
2023-10-02T02:41:19.626Z,14.38
2023-10-02T02:43:22.741Z,14.36
2023-10-02T02:45:32.882Z,14.38
2023-10-02T02:47:52.326Z,14.37
2023-10-02T02:49:59.709Z,14.37
2023-10-02T02:52:01.369Z,14.40
2023-10-02T02:54:06.339Z,14.38
2023-10-02T02:56:24.651Z,14.36
2023-10-02T02:58:27.234Z,14.36
2023-10-02T03:00:32.925Z,14.35
2023-10-02T03:02:34.543Z,14.34
2023-10-02T03:04:38.490Z,14.41
2023-10-02T03:06:43.305Z,14.36
2023-10-02T03:08:45.956Z,14.35
2023-10-02T03:10:48.026Z,14.32
2023-10-02T03:12:49.969Z,14.32
2023-10-02T03:14:55.422Z,14.32
2023-10-02T03:17:16.894Z,14.30
2023-10-02T03:19:20.408Z,14.32
2023-10-02T03:21:25.645Z,14.34
2023-10-02T03:23:31.665Z,14.30
2023-10-02T03:25:50.415Z,14.29
2023-10-02T03:27:51.886Z,14.32
2023-10-02T03:29:53.795Z,14.34
2023-10-02T03:31:55.284Z,14.30
2023-10-02T03:33:56.797Z,14.30
2023-10-02T03:35:59.672Z,14.33
2023-10-02T03:38:03.206Z,14.34
2023-10-02T03:40:15.153Z,14.30
2023-10-02T03:42:20.370Z,14.31
2023-10-02T03:44:23.886Z,14.25
2023-10-02T03:46:36.755Z,14.30
2023-10-02T03:48:38.214Z,14.28
2023-10-02T03:50:39.640Z,14.32
2023-10-02T03:52:46.691Z,14.30
2023-10-02T03:54:50.216Z,14.22
2023-10-02T03:56:52.780Z,14.23
2023-10-02T03:58:55.099Z,14.23
2023-10-02T04:00:56.568Z,14.19
2023-10-02T04:03:00.347Z,14.17
2023-10-02T04:05:02.036Z,14.22
2023-10-02T04:07:03.560Z,14.17
2023-10-02T04:09:15.943Z,14.19
2023-10-02T04:11:19.719Z,14.16
2023-10-02T04:13:26.080Z,14.12
2023-10-02T04:15:27.611Z,14.10
2023-10-02T04:17:35.755Z,14.08
2023-10-02T04:19:42.194Z,14.07
2023-10-02T04:21:46.652Z,14.08
2023-10-02T04:23:48.162Z,14.08
2023-10-02T04:25:53.022Z,14.11
2023-10-02T04:27:57.076Z,14.07
2023-10-02T04:30:20.768Z,14.08
2023-10-02T04:32:25.666Z,14.19
2023-10-02T04:34:30.988Z,14.11
2023-10-02T04:36:36.014Z,14.10
2023-10-02T04:38:50.808Z,14.10
2023-10-02T04:40:52.488Z,14.13
2023-10-02T04:43:10.477Z,14.07
2023-10-02T04:45:21.697Z,14.12
2023-10-02T04:47:24.567Z,14.14
2023-10-02T04:49:30.204Z,14.11
2023-10-02T04:51:31.818Z,14.10
2023-10-02T04:53:36.028Z,14.10
2023-10-02T04:55:43.933Z,14.05
2023-10-02T04:57:46.060Z,14.05
2023-10-02T04:59:56.142Z,14.09
2023-10-02T05:02:17.585Z,14.05
2023-10-02T05:04:20.018Z,14.05
2023-10-02T05:06:41.548Z,14.08
2023-10-02T05:09:03.410Z,14.11
2023-10-02T05:11:24.389Z,14.04
2023-10-02T05:13:44.685Z,14.03
2023-10-02T05:16:06.081Z,14.05
2023-10-02T05:18:10.789Z,14.05
2023-10-02T05:20:16.326Z,14.04
2023-10-02T05:22:17.806Z,14.02
2023-10-02T05:24:20.210Z,14.05
2023-10-02T05:26:40.122Z,14.01
2023-10-02T05:28:44.233Z,14.01
2023-10-02T05:30:46.031Z,14.03
2023-10-02T05:32:47.707Z,14.03
2023-10-02T05:35:15.318Z,14.06
2023-10-02T05:37:24.230Z,14.05
2023-10-02T05:39:29.357Z,14.07
2023-10-02T05:41:42.191Z,14.03
2023-10-02T05:43:56.790Z,14.03
2023-10-02T05:45:58.871Z,14.04
2023-10-02T05:48:00.573Z,14.03
2023-10-02T05:50:02.187Z,14.09
2023-10-02T05:52:12.507Z,14.07
2023-10-02T05:54:14.344Z,14.11
2023-10-02T05:56:15.803Z,14.09
2023-10-02T05:58:32.400Z,14.08
2023-10-02T06:00:36.958Z,14.15
2023-10-02T06:02:59.198Z,14.17
2023-10-02T06:05:09.565Z,14.19
2023-10-02T06:07:13.191Z,14.19
2023-10-02T06:09:15.374Z,14.26
2023-10-02T06:11:26.694Z,14.27
2023-10-02T06:13:38.237Z,14.23
2023-10-02T06:15:49.001Z,14.26
2023-10-02T06:17:50.567Z,14.33
2023-10-02T06:19:53.150Z,14.30
2023-10-02T06:21:57.542Z,14.39
2023-10-02T06:24:00.112Z,14.41
2023-10-02T06:26:02.837Z,14.44
2023-10-02T06:28:25.909Z,14.51
2023-10-02T06:30:30.437Z,14.55
2023-10-02T06:32:33.176Z,14.60
2023-10-02T06:34:38.858Z,14.65
2023-10-02T06:36:49.177Z,14.70
2023-10-02T06:38:55.938Z,14.72
2023-10-02T06:40:58.324Z,14.79
2023-10-02T06:43:01.928Z,14.85
2023-10-02T06:45:03.653Z,14.93
2023-10-02T06:47:12.569Z,15.02
2023-10-02T06:49:16.314Z,15.05
2023-10-02T06:51:17.965Z,15.13
2023-10-02T06:53:24.185Z,15.23
2023-10-02T06:55:27.250Z,15.26
2023-10-02T06:57:29.666Z,15.30
2023-10-02T06:59:33.924Z,15.37
2023-10-02T07:01:35.961Z,15.40
2023-10-02T07:03:40.553Z,15.46
2023-10-02T07:05:44.053Z,15.51
2023-10-02T07:08:00.250Z,15.57
2023-10-02T07:10:12.645Z,15.59
2023-10-02T07:12:17.009Z,15.62
2023-10-02T07:14:19.884Z,15.65
2023-10-02T07:16:23.609Z,15.70
2023-10-02T07:18:38.896Z,15.74
2023-10-02T07:20:44.291Z,15.82
2023-10-02T07:22:46.670Z,15.87
2023-10-02T07:24:50.474Z,15.91
2023-10-02T07:26:52.931Z,15.94
2023-10-02T07:28:54.836Z,15.98
2023-10-02T07:30:58.043Z,16.07
2023-10-02T07:33:05.037Z,16.09
2023-10-02T07:35:25.693Z,16.14
2023-10-02T07:37:27.455Z,16.21
2023-10-02T07:39:38.920Z,16.27
2023-10-02T07:41:40.756Z,16.31
2023-10-02T07:43:43.212Z,16.39
2023-10-02T07:45:46.274Z,16.48
2023-10-02T07:48:09.258Z,16.55
2023-10-02T07:50:24.612Z,16.58
2023-10-02T07:52:30.978Z,16.69
2023-10-02T07:54:45.521Z,16.69
2023-10-02T07:56:48.884Z,16.78
2023-10-02T07:58:56.394Z,16.81
2023-10-02T08:01:07.437Z,16.93
2023-10-02T08:03:28.920Z,17.01
2023-10-02T08:05:37.034Z,17.08
2023-10-02T08:07:40.818Z,17.16
2023-10-02T08:09:48.982Z,17.15
2023-10-02T08:11:51.559Z,17.23
2023-10-02T08:13:54.202Z,17.29
2023-10-02T08:15:56.774Z,17.44
2023-10-02T08:17:58.325Z,17.45
2023-10-02T08:20:00.804Z,17.53
2023-10-02T08:22:06.382Z,17.55
2023-10-02T08:24:12.134Z,17.59
2023-10-02T08:26:26.595Z,17.68
2023-10-02T08:28:31.800Z,17.82
2023-10-02T08:30:33.535Z,17.84
2023-10-02T08:32:36.433Z,17.91
2023-10-02T08:34:38.184Z,18.00
2023-10-02T08:36:41.396Z,18.10
2023-10-02T08:38:42.827Z,18.17
2023-10-02T08:40:44.279Z,18.20
2023-10-02T08:42:48.058Z,18.29
2023-10-02T08:44:50.914Z,18.31
2023-10-02T08:46:56.499Z,18.38
2023-10-02T08:48:58.128Z,18.49
2023-10-02T08:50:59.719Z,18.51
2023-10-02T08:53:05.661Z,18.61
2023-10-02T08:55:37.211Z,18.71
2023-10-02T08:58:02.444Z,18.80
2023-10-02T09:00:15.000Z,18.86
2023-10-02T09:02:18.218Z,18.96
2023-10-02T09:04:23.181Z,19.08
2023-10-02T09:06:29.620Z,19.15
2023-10-02T09:09:01.200Z,19.22
2023-10-02T09:11:02.852Z,19.34
2023-10-02T09:13:15.600Z,19.39
2023-10-02T09:15:33.402Z,19.48
2023-10-02T09:17:45.433Z,19.55
2023-10-02T09:19:59.136Z,19.58
2023-10-02T09:22:07.987Z,19.59
2023-10-02T09:24:28.748Z,19.60
2023-10-02T09:26:34.136Z,19.74
2023-10-02T09:28:43.014Z,19.80
2023-10-02T09:30:44.561Z,19.91
2023-10-02T09:32:54.168Z,19.91
2023-10-02T09:35:15.596Z,20.00
2023-10-02T09:38:05.799Z,20.10
2023-10-02T09:39:50.590Z,20.15
2023-10-02T09:41:56.548Z,20.20
2023-10-02T09:44:12.957Z,20.27
2023-10-02T09:46:17.484Z,20.43
2023-10-02T09:48:54.433Z,20.56
2023-10-02T09:50:57.446Z,20.62
2023-10-02T09:53:09.523Z,20.75
2023-10-02T09:55:21.319Z,20.80
2023-10-02T09:57:26.910Z,20.94
2023-10-02T09:59:28.715Z,20.98
2023-10-02T10:01:30.270Z,21.03
2023-10-02T10:03:32.894Z,21.18
2023-10-02T10:05:47.063Z,21.27
2023-10-02T10:08:00.856Z,21.43
2023-10-02T10:10:47.019Z,21.43
2023-10-02T10:12:56.734Z,21.50
2023-10-02T10:15:35.514Z,21.60
2023-10-02T10:17:52.930Z,21.70
2023-10-02T10:20:10.610Z,21.80
2023-10-02T10:22:36.115Z,21.78
2023-10-02T10:24:58.392Z,21.86
2023-10-02T10:26:59.951Z,21.95
2023-10-02T10:29:39.494Z,21.96
2023-10-02T10:31:41.088Z,22.03
2023-10-02T10:33:42.678Z,22.12
2023-10-02T10:35:52.865Z,22.21
2023-10-02T10:37:57.588Z,22.25
2023-10-02T10:40:02.117Z,22.27
2023-10-02T10:42:04.241Z,22.42
2023-10-02T10:44:13.544Z,22.51
2023-10-02T10:46:18.140Z,22.60
2023-10-02T10:48:22.937Z,22.70
2023-10-02T10:50:31.231Z,22.84
2023-10-02T10:52:36.402Z,22.94
2023-10-02T10:54:55.367Z,23.00
2023-10-02T10:57:20.046Z,23.01
2023-10-02T10:59:26.334Z,23.09
2023-10-02T11:01:28.793Z,23.19
2023-10-02T11:03:31.907Z,23.28
2023-10-02T11:05:34.673Z,23.17
2023-10-02T11:07:41.338Z,23.23
2023-10-02T11:09:42.782Z,23.28
2023-10-02T11:11:54.375Z,23.33
2023-10-02T11:13:56.434Z,23.44
2023-10-02T11:16:08.980Z,23.48
2023-10-02T11:18:22.734Z,23.52
2023-10-02T11:20:32.094Z,23.53
2023-10-02T11:22:50.140Z,23.67
2023-10-02T11:24:54.571Z,23.77
2023-10-02T11:27:11.868Z,23.81
2023-10-02T11:29:21.776Z,23.99
2023-10-02T11:31:31.259Z,24.22
2023-10-02T11:33:34.293Z,24.32
2023-10-02T11:35:39.734Z,24.40
2023-10-02T11:37:49.588Z,24.45
2023-10-02T11:39:51.834Z,24.51
2023-10-02T11:41:53.709Z,24.62
2023-10-02T11:43:57.532Z,24.63
2023-10-02T11:45:58.994Z,24.74
2023-10-02T11:48:00.722Z,24.75
2023-10-02T11:50:02.265Z,24.79
2023-10-02T11:52:04.991Z,24.81
2023-10-02T11:54:12.849Z,25.04
2023-10-02T11:56:14.331Z,25.10
2023-10-02T11:58:15.788Z,25.23
2023-10-02T12:00:17.427Z,25.32
2023-10-02T12:02:18.987Z,25.37
2023-10-02T12:04:20.515Z,25.63
2023-10-02T12:06:22.882Z,25.69
2023-10-02T12:08:24.388Z,25.91
2023-10-02T12:10:28.313Z,26.08
2023-10-02T12:12:29.771Z,26.14
2023-10-02T12:14:32.050Z,26.15
2023-10-02T12:16:33.736Z,26.36
2023-10-02T12:18:36.220Z,26.32
2023-10-02T12:20:40.775Z,26.36
2023-10-02T12:22:45.458Z,26.39
2023-10-02T12:24:47.750Z,26.58
2023-10-02T12:26:51.032Z,26.64
2023-10-02T12:28:52.596Z,26.56
2023-10-02T12:30:55.019Z,26.68
2023-10-02T12:32:57.009Z,26.75
2023-10-02T12:34:58.655Z,26.71
2023-10-02T12:37:01.652Z,26.80
2023-10-02T12:39:05.630Z,26.68
2023-10-02T12:41:19.398Z,26.64
2023-10-02T12:43:20.812Z,26.77
2023-10-02T12:45:22.254Z,26.80
2023-10-02T12:47:23.889Z,26.88
2023-10-02T12:49:25.484Z,26.96
2023-10-02T12:51:28.034Z,26.92
2023-10-02T12:53:29.535Z,26.75
2023-10-02T12:55:35.511Z,26.85
2023-10-02T12:57:39.998Z,26.82
2023-10-02T12:59:45.048Z,27.00
2023-10-02T13:01:46.588Z,26.92
2023-10-02T13:03:48.134Z,26.87
2023-10-02T13:05:50.865Z,26.92
2023-10-02T13:07:56.818Z,26.95
2023-10-02T13:09:58.330Z,27.05
2023-10-02T13:12:00.438Z,27.16
2023-10-02T13:14:02.101Z,27.07
2023-10-02T13:16:03.627Z,26.89
2023-10-02T13:18:05.650Z,26.89
2023-10-02T13:20:09.371Z,26.61
2023-10-02T13:22:11.591Z,26.28
2023-10-02T13:24:16.680Z,26.53
2023-10-02T13:26:18.764Z,26.60
2023-10-02T13:28:20.517Z,26.67
2023-10-02T13:30:26.972Z,26.62
2023-10-02T13:32:28.682Z,26.71
2023-10-02T13:34:32.445Z,26.72
2023-10-02T13:36:34.809Z,26.74
2023-10-02T13:38:37.159Z,26.65
2023-10-02T13:40:39.328Z,26.52
2023-10-02T13:42:40.766Z,26.48
2023-10-02T13:44:42.254Z,26.35
2023-10-02T13:46:44.171Z,26.16
2023-10-02T13:48:46.016Z,26.11
2023-10-02T13:51:02.475Z,26.05
2023-10-02T13:53:10.988Z,25.98
2023-10-02T13:55:23.690Z,25.88
2023-10-02T13:57:25.355Z,25.84
2023-10-02T13:59:27.333Z,25.86
2023-10-02T14:01:31.843Z,25.79
2023-10-02T14:03:34.109Z,25.72
2023-10-02T14:05:36.906Z,25.65
2023-10-02T14:07:38.481Z,25.67
2023-10-02T14:09:39.879Z,25.64
2023-10-02T14:11:41.687Z,25.62
2023-10-02T14:13:43.505Z,25.64
2023-10-02T14:15:44.926Z,25.68
2023-10-02T14:17:47.394Z,25.65
2023-10-02T14:19:56.267Z,25.55
2023-10-02T14:21:58.732Z,25.41
2023-10-02T14:24:00.952Z,25.41
2023-10-02T14:26:03.532Z,25.49
2023-10-02T14:28:06.136Z,25.59
2023-10-02T14:30:13.382Z,25.69
2023-10-02T14:32:14.941Z,25.76
2023-10-02T14:34:16.389Z,25.85
2023-10-02T14:36:18.374Z,25.68
2023-10-02T14:38:20.431Z,25.65
2023-10-02T14:40:30.649Z,25.62
2023-10-02T14:42:32.610Z,25.64
2023-10-02T14:44:36.633Z,25.57
2023-10-02T14:46:41.067Z,25.66
2023-10-02T14:48:47.516Z,26.23
2023-10-02T14:50:49.882Z,29.28
2023-10-02T14:52:54.192Z,28.60
2023-10-02T14:54:55.721Z,28.84
2023-10-02T14:56:57.165Z,28.44
2023-10-02T14:58:58.634Z,27.80
2023-10-02T15:01:00.289Z,27.33
2023-10-02T15:03:03.030Z,27.00
2023-10-02T15:05:04.927Z,27.04
2023-10-02T15:07:06.522Z,26.81
2023-10-02T15:09:10.877Z,26.52
2023-10-02T15:11:15.065Z,26.32
2023-10-02T15:13:18.949Z,26.18
2023-10-02T15:15:23.376Z,26.04
2023-10-02T15:17:27.221Z,25.99
2023-10-02T15:19:28.788Z,25.95
2023-10-02T15:21:30.231Z,25.99
2023-10-02T15:23:33.602Z,25.75
2023-10-02T15:25:35.652Z,25.63
2023-10-02T15:27:37.506Z,25.86
2023-10-02T15:29:38.994Z,25.68
2023-10-02T15:31:40.438Z,25.52
2023-10-02T15:33:42.490Z,25.48
2023-10-02T15:35:44.528Z,25.41
2023-10-02T15:37:55.352Z,25.38
2023-10-02T15:39:56.800Z,25.65
2023-10-02T15:41:58.213Z,25.47
2023-10-02T15:43:59.816Z,25.33
2023-10-02T15:46:04.778Z,25.13
2023-10-02T15:48:06.598Z,25.12
2023-10-02T15:50:09.334Z,24.96
2023-10-02T15:52:11.110Z,24.85
2023-10-02T15:54:16.276Z,24.81
2023-10-02T15:56:20.771Z,24.68
2023-10-02T15:58:25.547Z,24.62
2023-10-02T16:00:30.237Z,24.50
2023-10-02T16:02:41.231Z,24.41
2023-10-02T16:04:47.882Z,24.27
2023-10-02T16:07:03.416Z,24.14
2023-10-02T16:09:09.171Z,24.09
2023-10-02T16:11:12.489Z,23.95
2023-10-02T16:13:15.564Z,23.83
2023-10-02T16:15:27.069Z,23.83
2023-10-02T16:17:33.407Z,23.69
2023-10-02T16:19:39.140Z,23.59
2023-10-02T16:21:42.461Z,23.55
2023-10-02T16:23:49.522Z,23.36
2023-10-02T16:25:53.401Z,23.35
2023-10-02T16:27:56.959Z,23.28
2023-10-02T16:30:03.152Z,23.11
2023-10-02T16:32:07.909Z,22.98
2023-10-02T16:34:14.313Z,22.94
2023-10-02T16:36:29.252Z,22.78
2023-10-02T16:38:33.300Z,22.68
2023-10-02T16:40:39.709Z,22.63
2023-10-02T16:42:47.594Z,22.54
2023-10-02T16:44:52.839Z,22.39
2023-10-02T16:46:56.564Z,22.31
2023-10-02T16:49:00.647Z,22.22
2023-10-02T16:51:05.114Z,22.12
2023-10-02T16:53:12.954Z,22.04
2023-10-02T16:55:25.492Z,21.89
2023-10-02T16:57:35.227Z,21.81
2023-10-02T16:59:42.053Z,21.71
2023-10-02T17:01:48.838Z,21.57
2023-10-02T17:03:53.801Z,21.50
2023-10-02T17:05:58.241Z,21.38
2023-10-02T17:08:01.614Z,21.30
2023-10-02T17:10:06.344Z,21.22
2023-10-02T17:12:09.137Z,21.12
2023-10-02T17:14:15.413Z,21.01
2023-10-02T17:16:18.545Z,20.96
2023-10-02T17:18:24.703Z,20.93
2023-10-02T17:20:27.438Z,20.87
2023-10-02T17:22:32.096Z,20.87
2023-10-02T17:24:34.406Z,20.77
2023-10-02T17:26:37.486Z,20.72
2023-10-02T17:28:39.775Z,20.72
2023-10-02T17:30:41.951Z,20.66
2023-10-02T17:32:43.989Z,20.54
2023-10-02T17:34:45.792Z,20.48
2023-10-02T17:36:47.516Z,20.47
2023-10-02T17:38:49.965Z,20.38
2023-10-02T17:40:53.149Z,20.38
2023-10-02T17:42:57.641Z,20.29
2023-10-02T17:44:59.916Z,20.21
2023-10-02T17:47:01.727Z,20.16
2023-10-02T17:49:03.661Z,20.09
2023-10-02T17:51:07.629Z,20.04
2023-10-02T17:53:11.268Z,19.95
2023-10-02T17:55:13.097Z,19.98
2023-10-02T17:57:18.684Z,19.94
2023-10-02T17:59:21.909Z,19.89
2023-10-02T18:01:23.786Z,19.80
2023-10-02T18:03:25.550Z,19.79
2023-10-02T18:05:29.659Z,19.74
2023-10-02T18:07:31.538Z,19.69
2023-10-02T18:09:36.803Z,19.60
2023-10-02T18:11:38.605Z,19.61
2023-10-02T18:13:40.514Z,19.52
2023-10-02T18:15:43.974Z,19.49
2023-10-02T18:17:46.991Z,19.49
2023-10-02T18:19:48.802Z,19.44
2023-10-02T18:21:50.491Z,19.39
2023-10-02T18:23:52.230Z,19.33
2023-10-02T18:25:54.549Z,19.38
2023-10-02T18:27:58.110Z,19.28
2023-10-02T18:29:59.908Z,19.24
2023-10-02T18:32:02.590Z,19.15
2023-10-02T18:34:05.132Z,19.12
2023-10-02T18:36:07.037Z,19.07
2023-10-02T18:38:09.414Z,19.02
2023-10-02T18:40:14.938Z,19.00
2023-10-02T18:42:20.621Z,18.95
2023-10-02T18:44:25.904Z,18.93
2023-10-02T18:46:27.730Z,18.87
2023-10-02T18:48:29.860Z,18.79
2023-10-02T18:50:32.191Z,18.82
2023-10-02T18:52:35.953Z,18.75
2023-10-02T18:54:37.774Z,18.74
2023-10-02T18:56:39.746Z,18.69
2023-10-02T18:58:41.478Z,18.75
2023-10-02T19:00:43.294Z,18.81
2023-10-02T19:02:46.328Z,18.71
2023-10-02T19:04:49.669Z,18.67
2023-10-02T19:06:51.339Z,18.63
2023-10-02T19:08:54.597Z,18.61
2023-10-02T19:10:56.667Z,18.59
2023-10-02T19:12:59.193Z,18.62
2023-10-02T19:15:01.089Z,18.64
2023-10-02T19:17:02.773Z,18.63
2023-10-02T19:19:04.739Z,18.54
2023-10-02T19:21:06.917Z,18.49
2023-10-02T19:23:08.636Z,18.53
2023-10-02T19:25:10.763Z,18.48
2023-10-02T19:27:12.865Z,18.43
2023-10-02T19:29:14.589Z,18.40
2023-10-02T19:31:17.385Z,18.34
2023-10-02T19:33:19.541Z,18.31
2023-10-02T19:35:21.502Z,18.25
2023-10-02T19:37:23.430Z,18.25
2023-10-02T19:39:25.148Z,18.19
2023-10-02T19:41:27.289Z,18.16
2023-10-02T19:43:30.169Z,18.08
2023-10-02T19:45:32.031Z,18.09
2023-10-02T19:47:34.356Z,18.08
2023-10-02T19:49:36.344Z,18.05
2023-10-02T19:51:38.375Z,18.12
2023-10-02T19:53:40.507Z,18.12
2023-10-02T19:55:42.843Z,18.09
2023-10-02T19:57:44.547Z,18.10
2023-10-02T19:59:48.331Z,18.04
2023-10-02T20:01:50.249Z,18.03
2023-10-02T20:03:55.880Z,17.97
2023-10-02T20:06:00.827Z,18.02
2023-10-02T20:08:02.675Z,18.03
2023-10-02T20:10:07.234Z,17.94
2023-10-02T20:12:08.916Z,17.91
2023-10-02T20:14:10.398Z,17.88
2023-10-02T20:16:11.959Z,17.87
2023-10-02T20:18:16.742Z,17.82
2023-10-02T20:20:18.495Z,17.81
2023-10-02T20:22:20.168Z,17.79
2023-10-02T20:24:22.052Z,17.79
2023-10-02T20:26:23.675Z,17.78
2023-10-02T20:28:25.643Z,17.77
2023-10-02T20:30:27.123Z,17.79
2023-10-02T20:32:28.763Z,17.69
2023-10-02T20:34:37.042Z,17.61
2023-10-02T20:36:39.296Z,17.63
2023-10-02T20:38:41.400Z,17.57
2023-10-02T20:40:43.551Z,17.53
2023-10-02T20:42:45.316Z,17.50
2023-10-02T20:44:46.817Z,17.45
2023-10-02T20:46:56.181Z,17.41
2023-10-02T20:49:05.635Z,17.36
2023-10-02T20:51:07.064Z,17.33
2023-10-02T20:53:08.524Z,17.28
2023-10-02T20:55:10.943Z,17.25
2023-10-02T20:57:12.404Z,17.22
2023-10-02T21:01:20.940Z,17.16
2023-10-02T21:03:22.505Z,17.14
2023-10-02T21:05:24.261Z,17.23
2023-10-02T21:07:25.858Z,17.16
2023-10-02T21:09:27.424Z,17.14
2023-10-02T21:11:29.755Z,17.13
2023-10-02T21:13:31.234Z,17.15
2023-10-02T21:15:32.693Z,17.22
2023-10-02T21:17:34.234Z,17.26
2023-10-02T21:19:35.844Z,17.33
2023-10-02T21:21:37.629Z,17.35
2023-10-02T21:23:39.086Z,17.36
2023-10-02T21:25:40.582Z,17.38
2023-10-02T21:27:42.545Z,17.33
2023-10-02T21:29:44.068Z,17.38
2023-10-02T21:31:45.579Z,17.35
2023-10-02T21:33:47.038Z,17.33
2023-10-02T21:35:49.696Z,17.35
2023-10-02T21:37:51.185Z,17.32
2023-10-02T21:39:52.691Z,17.29
2023-10-02T21:41:54.305Z,17.29
2023-10-02T21:43:55.770Z,17.32
2023-10-02T21:45:57.203Z,17.33
2023-10-02T21:47:59.863Z,17.32
2023-10-02T21:50:01.760Z,17.39
2023-10-02T21:52:03.564Z,17.37
2023-10-02T21:54:05.348Z,17.36
2023-10-02T21:56:09.600Z,17.36
2023-10-02T21:58:11.144Z,17.42
2023-10-02T22:00:32.473Z,17.47
2023-10-02T22:02:34.200Z,17.45
2023-10-02T22:04:35.660Z,17.56
2023-10-02T22:06:37.163Z,17.47
2023-10-02T22:08:40.309Z,17.44
2023-10-02T22:10:45.208Z,17.58
2023-10-02T22:12:46.684Z,17.58
2023-10-02T22:14:49.221Z,17.49
2023-10-02T22:16:50.681Z,17.54
2023-10-02T22:18:52.546Z,17.50
2023-10-02T22:21:11.191Z,17.51
2023-10-02T22:23:15.780Z,17.53
2023-10-02T22:25:19.063Z,17.53
2023-10-02T22:27:20.500Z,17.51
2023-10-02T22:29:21.994Z,17.52
2023-10-02T22:31:24.468Z,17.55
2023-10-02T22:33:26.029Z,17.59
2023-10-02T22:35:27.638Z,17.63
2023-10-02T22:37:33.632Z,17.68
2023-10-02T22:39:35.210Z,17.69
2023-10-02T22:41:36.802Z,17.62
2023-10-02T22:43:38.312Z,17.66
2023-10-02T22:45:40.309Z,17.65
2023-10-02T22:47:43.318Z,17.68
2023-10-02T22:49:44.786Z,17.65
2023-10-02T22:51:46.220Z,17.68
2023-10-02T22:53:49.362Z,17.68
2023-10-02T22:55:51.678Z,17.65
2023-10-02T22:57:56.762Z,17.74
2023-10-02T22:59:58.378Z,17.68
2023-10-02T23:02:00.934Z,17.63
2023-10-02T23:04:07.458Z,17.62
2023-10-02T23:06:09.772Z,17.65
2023-10-02T23:08:13.777Z,17.74
2023-10-02T23:10:19.510Z,17.65
2023-10-02T23:12:20.941Z,17.64
2023-10-02T23:14:24.058Z,17.66
2023-10-02T23:16:26.486Z,17.64
2023-10-02T23:18:29.194Z,17.63
2023-10-02T23:20:32.715Z,17.54
2023-10-02T23:22:37.324Z,17.52
2023-10-02T23:24:38.869Z,17.49
2023-10-02T23:26:40.364Z,17.54
2023-10-02T23:28:42.018Z,17.52
2023-10-02T23:30:43.630Z,17.51
2023-10-02T23:32:45.202Z,17.51
2023-10-02T23:34:46.751Z,17.46
2023-10-02T23:36:48.773Z,17.43
2023-10-02T23:38:50.385Z,17.43
2023-10-02T23:40:51.852Z,17.45
2023-10-02T23:43:01.267Z,17.40
2023-10-02T23:45:07.516Z,17.39
2023-10-02T23:47:10.892Z,17.37
2023-10-02T23:49:13.815Z,17.37
2023-10-02T23:51:15.355Z,17.38
2023-10-02T23:53:16.948Z,17.31
2023-10-02T23:55:24.838Z,17.36
2023-10-02T23:57:28.740Z,17.31
2023-10-02T23:59:30.293Z,17.29
